sensor_id;sensor_type;location;lat;lon;timestamp;P1;durP1;ratioP1;P2;durP2;ratioP2
70388;SDS011;58659;49.050;8.530;2024-01-16T10:30:04;7.27;;;3.40;;
70388;SDS011;58659;49.050;8.530;2024-01-16T10:32:31;9.00;;;3.00;;
70388;SDS011;58659;49.050;8.530;2024-01-16T10:37:29;4.07;;;2.50;;
70388;SDS011;58659;49.050;8.530;2024-01-16T10:39:54;7.20;;;2.90;;
70388;SDS011;58659;49.050;8.530;2024-01-16T10:42:19;4.83;;;2.80;;
70388;SDS011;58659;49.050;8.530;2024-01-16T10:44:54;4.73;;;2.50;;
70388;SDS011;58659;49.050;8.530;2024-01-16T10:47:22;6.57;;;2.70;;
70388;SDS011;58659;49.050;8.530;2024-01-16T10:49:47;5.20;;;2.77;;
70388;SDS011;58659;49.050;8.530;2024-01-16T10:52:13;6.27;;;3.03;;
70388;SDS011;58659;49.050;8.530;2024-01-16T10:54:40;10.17;;;2.73;;
70388;SDS011;58659;49.050;8.530;2024-01-16T10:57:06;6.43;;;2.60;;
70388;SDS011;58659;49.050;8.530;2024-01-16T10:59:31;4.23;;;2.63;;
70388;SDS011;58659;49.050;8.530;2024-01-16T11:40:38;5.57;;;2.33;;
70388;SDS011;58659;49.050;8.530;2024-01-16T11:48:10;5.53;;;2.43;;
70388;SDS011;58659;49.050;8.530;2024-01-16T11:50:36;5.00;;;2.13;;
70388;SDS011;58659;49.050;8.530;2024-01-16T11:53:01;3.73;;;2.37;;
70388;SDS011;58659;49.050;8.530;2024-01-16T12:00:41;3.00;;;2.00;;
70388;SDS011;58659;49.050;8.530;2024-01-16T12:03:10;4.80;;;2.07;;
70388;SDS011;58659;49.050;8.530;2024-01-16T12:05:38;4.83;;;2.27;;
70388;SDS011;58659;49.050;8.530;2024-01-16T12:08:03;3.73;;;2.03;;
70388;SDS011;58659;49.050;8.530;2024-01-16T12:10:29;3.40;;;1.90;;
70388;SDS011;58659;49.050;8.530;2024-01-16T12:13:00;5.43;;;1.67;;
70388;SDS011;58659;49.050;8.530;2024-01-16T12:15:25;4.90;;;2.30;;
70388;SDS011;58659;49.050;8.530;2024-01-16T12:17:57;3.67;;;1.97;;
70388;SDS011;58659;49.050;8.530;2024-01-16T12:20:23;4.57;;;2.00;;
70388;SDS011;58659;49.050;8.530;2024-01-16T12:22:53;6.97;;;2.23;;
70388;SDS011;58659;49.050;8.530;2024-01-16T12:25:21;5.43;;;1.90;;
70388;SDS011;58659;49.050;8.530;2024-01-16T12:27:59;3.30;;;2.10;;
70388;SDS011;58659;49.050;8.530;2024-01-16T12:30:30;3.47;;;2.10;;
70388;SDS011;58659;49.050;8.530;2024-01-16T12:35:32;4.90;;;2.30;;
70388;SDS011;58659;49.050;8.530;2024-01-16T12:37:58;3.67;;;2.07;;
70388;SDS011;58659;49.050;8.530;2024-01-16T12:40:23;4.83;;;2.10;;
70388;SDS011;58659;49.050;8.530;2024-01-16T12:42:49;4.83;;;1.90;;
70388;SDS011;58659;49.050;8.530;2024-01-16T12:45:14;4.23;;;1.97;;
70388;SDS011;58659;49.050;8.530;2024-01-16T12:47:40;4.07;;;2.00;;
70388;SDS011;58659;49.050;8.530;2024-01-16T12:50:05;2.57;;;1.83;;
70388;SDS011;58659;49.050;8.530;2024-01-16T12:52:30;4.80;;;2.53;;
70388;SDS011;58659;49.050;8.530;2024-01-16T12:55:00;3.60;;;1.73;;
70388;SDS011;58659;49.050;8.530;2024-01-16T12:57:33;3.20;;;1.93;;
70388;SDS011;58659;49.050;8.530;2024-01-16T12:59:59;4.20;;;1.60;;
70388;SDS011;58659;49.050;8.530;2024-01-16T13:02:26;1.93;;;1.60;;
70388;SDS011;58659;49.050;8.530;2024-01-16T13:05:00;2.77;;;1.63;;
70388;SDS011;58659;49.050;8.530;2024-01-16T13:07:29;2.97;;;1.63;;
